Главная страница
METAR-TAF:

METAR-TAF

Аэропорты :

Алис-Спрингс, Австралия

широта: 23-48S, долгота: 133-53E, высота над уровнем моря: 545 м

Текущие метеонаблюдения

Эта сводка был подготовлена 28 минут назад, в 22:30 UTC
Ветер 13 Узел от южный
Температура 33°C
Влажность 21%
Давление 1010 hPa
Видимость 10 км и более

METAR: YBAS 182230Z AUTO 19013KT 9999 // NCD 33/08 Q1010 RF00.0/000.0

Время: 08:28 (22:58 UTC)

Прогноз

Эта сводка был подготовлена 5 часа и 29 минут назад, в 17:29 UTC
Прогноз действительный с 18-го 18 UTC до 19-го 18 UTC
Ветер 8 Узел от южный-юго-западный
Видимость 10 км и более
Нет облачности ниже 1500 м, и нет кучево-дождевой облачности
С 18-го 2300 UTC
Ветер 12 Узел от южный
Видимость 10 км и более
Нет облачности ниже 1500 м, и нет кучево-дождевой облачности
С 19-го 1300 UTC
Ветер 10 Узел от юго-восточный
Видимость 10 км и более
Нет облачности ниже 1500 м, и нет кучево-дождевой облачности

TAF: YBAS 181729Z 1818/1918 20008KT CAVOK FM182300 17012KT CAVOK FM191300 14010KT CAVOK

Метеонаблюдения и прогнозы для более 4000 аэропортов (сводки METAR и TAF).

Имеющиеся станции представлены на карте желтыми и красными точками.

Чтобы увидеть название станции, наведите на нее мышь.

Затем щелкните, чтобы увидеть метеонаблюдения и метеопрогнозы.

Управление картой: чтобы увеличить масштаб, щелкните зеленые кнопки с черным крестиком; чтобы уменьшить масштаб, щелкните зеленую кнопку с тире; для просмотра соседних карт щелкайте зеленые стрелки.


METAR-TAF: